Time;durP1;ratioP1;P1;durP2;ratioP2;P2;SDS_P1;SDS_P2;PMS_P1;PMS_P2;Temp;Humidity;BMP_temperature;BMP_pressure;BME280_temperature;BME280_humidity;BME280_pressure;Samples;Min_cycle;Max_cycle;Signal;HPM_P1;HPM_P2
2023/08/05 00:01:17;;;;;;;2.23;1.60;;;14.80;99.90;;;;;;6101684;23;20204;-88
2023/08/05 00:03:43;;;;;;;2.53;1.73;;;14.70;99.90;;;;;;6077637;23;20206;-89
2023/08/05 00:06:10;;;;;;;1.63;1.53;;;14.80;99.90;;;;;;6102222;23;20275;-88
2023/08/05 00:08:36;;;;;;;2.50;1.80;;;14.80;99.90;;;;;;6102277;23;20195;-89
2023/08/05 00:11:02;;;;;;;3.10;1.77;;;14.80;99.90;;;;;;6102610;23;20223;-89
2023/08/05 00:13:30;;;;;;;2.47;1.80;;;14.80;99.90;;;;;;6101356;23;20211;-89
2023/08/05 00:15:56;;;;;;;3.33;2.00;;;14.80;99.90;;;;;;6102274;23;20192;-90
2023/08/05 00:18:21;;;;;;;2.33;1.77;;;14.90;99.90;;;;;;6101426;23;20689;-89
2023/08/05 00:20:50;;;;;;;3.30;1.80;;;14.90;99.90;;;;;;6102072;23;20238;-88
2023/08/05 00:23:16;;;;;;;6.60;2.10;;;14.80;99.90;;;;;;6101941;23;20255;-89
2023/08/05 00:25:43;;;;;;;3.13;2.43;;;14.80;99.90;;;;;;6102590;23;20203;-89
2023/08/05 00:28:09;;;;;;;2.53;1.73;;;14.70;99.90;;;;;;6101549;23;20250;-89
2023/08/05 00:30:35;;;;;;;2.40;1.70;;;14.70;99.90;;;;;;6101710;23;20212;-89
2023/08/05 00:33:01;;;;;;;2.33;1.50;;;14.70;99.90;;;;;;6101839;23;20263;-89
2023/08/05 00:35:27;;;;;;;2.63;2.00;;;14.70;99.90;;;;;;6101404;23;20341;-89
2023/08/05 00:37:53;;;;;;;7.80;1.93;;;14.70;99.90;;;;;;6102059;23;20164;-89
2023/08/05 00:40:19;;;;;;;3.00;1.80;;;14.70;99.90;;;;;;6125874;23;20192;-90
2023/08/05 00:42:44;;;;;;;2.70;1.83;;;14.60;99.90;;;;;;6101526;23;20203;-88
2023/08/05 00:45:12;;;;;;;2.90;1.70;;;14.50;99.90;;;;;;6101659;23;20622;-90
2023/08/05 00:47:38;;;;;;;3.30;2.10;;;14.50;99.90;;;;;;6101963;23;20200;-90
2023/08/05 00:50:04;;;;;;;2.33;1.83;;;14.50;99.90;;;;;;6102540;23;20160;-90
2023/08/05 00:52:30;;;;;;;5.37;2.83;;;14.50;99.90;;;;;;6102435;23;20204;-90
2023/08/05 00:54:56;;;;;;;2.50;1.90;;;14.60;99.90;;;;;;6078329;23;20191;-90
2023/08/05 00:57:22;;;;;;;2.63;2.00;;;14.60;99.90;;;;;;6126327;23;20227;-90
2023/08/05 00:59:48;;;;;;;4.50;2.33;;;14.70;99.90;;;;;;6126133;23;20199;-90
2023/08/05 01:02:14;;;;;;;4.40;2.10;;;14.70;99.90;;;;;;6101587;23;20164;-90
2023/08/05 01:04:39;;;;;;;5.27;2.67;;;14.70;99.90;;;;;;6102247;23;20167;-90
2023/08/05 01:07:05;;;;;;;2.80;1.93;;;14.80;99.90;;;;;;6126271;23;20202;-90
2023/08/05 01:09:32;;;;;;;4.13;2.13;;;14.80;99.90;;;;;;6101609;23;20508;-90
2023/08/05 01:11:59;;;;;;;1.90;1.57;;;14.80;99.90;;;;;;6101847;23;20223;-90
2023/08/05 01:14:24;;;;;;;2.57;1.90;;;14.80;99.90;;;;;;6125589;23;20167;-90
2023/08/05 01:16:50;;;;;;;10.37;2.60;;;14.80;99.90;;;;;;6102346;23;20163;-90
2023/08/05 01:19:25;;;;;;;4.73;2.07;;;14.80;99.90;;;;;;6101877;23;20668;-90
2023/08/05 01:22:03;;;;;;;3.33;2.30;;;14.90;99.90;;;;;;6126342;23;20648;-90
2023/08/05 01:24:43;;;;;;;2.83;1.47;;;14.90;99.90;;;;;;6125921;23;20631;-90
2023/08/05 01:27:10;;;;;;;2.80;1.50;;;14.90;99.90;;;;;;6125606;23;20262;-89
2023/08/05 01:29:36;;;;;;;4.17;2.43;;;14.90;99.90;;;;;;6101299;23;20195;-90
2023/08/05 01:32:03;;;;;;;3.17;2.10;;;15.00;99.90;;;;;;6101519;23;20184;-89
2023/08/05 01:34:30;;;;;;;5.43;2.27;;;15.00;99.90;;;;;;6100985;23;20203;-89
2023/08/05 01:36:56;;;;;;;5.17;2.40;;;15.00;99.90;;;;;;6125349;23;20501;-89
2023/08/05 01:39:22;;;;;;;2.07;1.87;;;15.00;99.90;;;;;;6101018;23;20223;-89
2023/08/05 01:41:48;;;;;;;13.47;2.27;;;15.10;99.90;;;;;;6100823;23;20203;-90
2023/08/05 01:44:13;;;;;;;2.60;1.67;;;15.10;99.90;;;;;;6101114;23;20163;-90
2023/08/05 01:46:39;;;;;;;4.60;2.10;;;15.10;99.90;;;;;;6101231;23;20251;-90
2023/08/05 01:49:05;;;;;;;3.10;2.30;;;15.20;99.90;;;;;;6100350;23;20203;-91
2023/08/05 01:51:31;;;;;;;3.67;2.20;;;15.20;99.90;;;;;;6101285;23;20204;-91
2023/08/05 01:53:56;;;;;;;2.70;2.07;;;15.20;99.90;;;;;;6126761;23;20191;-90
2023/08/05 01:56:22;;;;;;;4.03;1.70;;;15.20;99.90;;;;;;6102826;23;20247;-90
2023/08/05 01:58:48;;;;;;;3.10;1.77;;;15.20;99.90;;;;;;6103928;23;20160;-90
2023/08/05 02:01:13;;;;;;;4.80;2.13;;;15.20;99.90;;;;;;6102781;23;20207;-91
2023/08/05 02:03:39;;;;;;;4.03;2.47;;;15.20;99.90;;;;;;6103713;23;20595;-91
2023/08/05 02:06:05;;;;;;;2.43;1.80;;;15.30;99.90;;;;;;6103095;23;20196;-91
2023/08/05 02:08:31;;;;;;;3.07;1.83;;;15.30;99.90;;;;;;6103245;23;20293;-90
2023/08/05 02:10:56;;;;;;;2.40;1.70;;;15.30;99.90;;;;;;6103930;23;20183;-89
2023/08/05 02:13:23;;;;;;;2.37;1.37;;;15.30;99.90;;;;;;6103063;23;20645;-89
2023/08/05 02:15:49;;;;;;;4.40;2.77;;;15.30;99.90;;;;;;6103788;23;20204;-90
2023/08/05 02:18:15;;;;;;;2.17;1.63;;;15.40;99.90;;;;;;6103443;23;20187;-91
2023/08/05 02:20:42;;;;;;;1.87;1.33;;;15.40;99.90;;;;;;6103100;23;20203;-90
2023/08/05 02:23:07;;;;;;;4.50;2.03;;;15.40;99.90;;;;;;6103335;23;20240;-90
2023/08/05 02:25:33;;;;;;;3.57;2.10;;;15.40;99.90;;;;;;6103849;23;20188;-90
2023/08/05 02:27:59;;;;;;;2.10;1.30;;;15.40;99.90;;;;;;6127543;23;20681;-90
2023/08/05 02:30:25;;;;;;;1.60;1.40;;;15.40;99.90;;;;;;6127089;23;20196;-90
2023/08/05 02:32:50;;;;;;;3.23;2.00;;;15.50;99.90;;;;;;6103055;23;20207;-90
2023/08/05 02:35:16;;;;;;;6.17;2.03;;;15.50;99.90;;;;;;6102879;23;20200;-90
2023/08/05 02:37:42;;;;;;;4.27;2.80;;;15.50;99.90;;;;;;6128204;23;20165;-90
2023/08/05 02:40:09;;;;;;;3.83;2.70;;;15.50;99.90;;;;;;6103028;23;20585;-90
2023/08/05 02:42:34;;;;;;;3.90;1.63;;;15.50;99.90;;;;;;6079557;23;20196;-89
2023/08/05 02:45:01;;;;;;;2.87;1.83;;;15.50;99.90;;;;;;6103260;23;20511;-90
2023/08/05 02:47:27;;;;;;;7.03;2.43;;;15.50;99.90;;;;;;6103199;23;20260;-90
2023/08/05 02:49:53;;;;;;;7.77;2.00;;;15.50;99.90;;;;;;6103310;23;20163;-89
2023/08/05 02:52:19;;;;;;;3.57;2.70;;;15.60;99.90;;;;;;6078399;23;20216;-91
2023/08/05 02:54:45;;;;;;;5.10;1.83;;;15.60;99.90;;;;;;6101667;23;20536;-90
2023/08/05 02:57:10;;;;;;;4.20;2.07;;;15.60;99.90;;;;;;6102866;23;20192;-90
2023/08/05 02:59:37;;;;;;;7.97;2.67;;;15.70;99.90;;;;;;6126746;23;20192;-89
2023/08/05 03:02:03;;;;;;;6.30;2.90;;;15.70;99.90;;;;;;6102935;23;20468;-89
2023/08/05 03:04:29;;;;;;;4.97;2.53;;;15.70;99.90;;;;;;6126615;23;20282;-89
2023/08/05 03:06:55;;;;;;;4.17;1.80;;;15.70;99.90;;;;;;6102791;23;20223;-89
2023/08/05 03:09:21;;;;;;;5.33;3.07;;;15.60;99.90;;;;;;6102751;23;20690;-89
2023/08/05 03:11:47;;;;;;;6.83;2.90;;;15.70;99.90;;;;;;6102685;23;20529;-89
2023/08/05 03:14:14;;;;;;;3.57;3.07;;;15.70;99.90;;;;;;6100955;23;20168;-89
2023/08/05 03:16:41;;;;;;;8.23;2.33;;;15.70;99.90;;;;;;6102815;23;20164;-89
2023/08/05 03:19:07;;;;;;;6.27;3.07;;;15.70;99.90;;;;;;6102045;23;20685;-90
2023/08/05 03:21:32;;;;;;;4.70;2.17;;;15.70;99.90;;;;;;6100561;23;20223;-90
2023/08/05 03:23:58;;;;;;;4.53;2.50;;;15.70;99.90;;;;;;6100346;23;20192;-90
2023/08/05 03:26:24;;;;;;;7.03;3.03;;;15.70;99.90;;;;;;6102896;23;20156;-90
2023/08/05 03:28:50;;;;;;;4.37;2.30;;;15.70;99.90;;;;;;6103334;23;20156;-90
2023/08/05 03:31:15;;;;;;;3.50;2.57;;;15.60;99.90;;;;;;6102390;23;20541;-90
2023/08/05 03:33:42;;;;;;;4.17;2.30;;;15.60;99.90;;;;;;6102391;23;20283;-90
2023/08/05 03:36:08;;;;;;;9.00;2.73;;;15.70;99.90;;;;;;6102287;23;20199;-90
2023/08/05 03:38:34;;;;;;;7.83;3.73;;;15.70;99.90;;;;;;6101837;23;20196;-89
2023/08/05 03:41:05;;;;;;;2.90;2.03;;;15.70;99.90;;;;;;6103176;23;20175;-90
2023/08/05 03:43:31;;;;;;;8.03;2.90;;;15.60;99.90;;;;;;6102832;23;20196;-90
2023/08/05 03:45:57;;;;;;;5.57;2.13;;;15.50;99.90;;;;;;6102285;23;20195;-90
2023/08/05 03:48:22;;;;;;;5.03;2.47;;;15.40;99.90;;;;;;6102350;23;20254;-89
2023/08/05 03:50:48;;;;;;;7.90;2.63;;;15.30;99.90;;;;;;6102476;23;20566;-89
2023/08/05 03:53:14;;;;;;;4.53;2.57;;;15.20;99.90;;;;;;6102585;23;20184;-89
2023/08/05 03:55:40;;;;;;;2.83;1.93;;;15.30;99.90;;;;;;6102228;23;20160;-89
2023/08/05 03:58:07;;;;;;;7.20;3.13;;;15.30;99.90;;;;;;6100313;23;20192;-90
2023/08/05 04:00:34;;;;;;;5.03;2.50;;;15.40;99.90;;;;;;6100942;23;20192;-90
2023/08/05 04:03:00;;;;;;;4.63;2.90;;;15.40;99.90;;;;;;6101245;23;20192;-90
2023/08/05 04:05:27;;;;;;;2.63;1.60;;;15.40;99.90;;;;;;6100074;23;20176;-90
2023/08/05 04:07:53;;;;;;;7.03;2.53;;;15.50;99.90;;;;;;6126524;23;20156;-90
2023/08/05 04:10:22;;;;;;;4.23;2.40;;;15.40;99.90;;;;;;6101655;23;20192;-89
2023/08/05 04:12:48;;;;;;;5.40;2.40;;;15.40;99.90;;;;;;6102086;23;20196;-89
2023/08/05 04:15:14;;;;;;;10.70;2.43;;;15.40;99.90;;;;;;6100809;23;20265;-88
2023/08/05 04:17:40;;;;;;;2.13;1.90;;;15.40;99.90;;;;;;6122835;23;20716;-89
2023/08/05 04:20:07;;;;;;;4.10;1.67;;;15.40;99.90;;;;;;6100893;23;20192;-89
2023/08/05 04:22:35;;;;;;;4.17;1.83;;;15.40;99.90;;;;;;6078382;23;20566;-89
2023/08/05 04:25:00;;;;;;;4.70;2.77;;;15.40;99.90;;;;;;6101522;23;20192;-89
2023/08/05 04:27:26;;;;;;;4.27;2.83;;;15.50;99.90;;;;;;6101711;23;20616;-89
2023/08/05 04:29:53;;;;;;;6.43;2.63;;;15.40;99.90;;;;;;6101313;23;20297;-89
2023/08/05 04:32:21;;;;;;;5.13;1.93;;;15.40;99.90;;;;;;6101420;23;20198;-88
2023/08/05 04:34:49;;;;;;;6.33;2.30;;;15.40;99.90;;;;;;6102529;23;20219;-89
2023/08/05 04:37:16;;;;;;;3.33;2.20;;;15.40;99.90;;;;;;6125788;23;20251;-89
2023/08/05 04:39:43;;;;;;;4.33;1.80;;;15.50;99.90;;;;;;6123279;23;20196;-90
2023/08/05 04:42:09;;;;;;;3.33;2.20;;;15.50;99.90;;;;;;6100555;23;20189;-90
2023/08/05 04:44:35;;;;;;;13.83;2.67;;;15.50;99.90;;;;;;6101665;23;20382;-90
2023/08/05 04:47:00;;;;;;;3.20;1.77;;;15.50;99.90;;;;;;6102559;23;20634;-91
2023/08/05 04:49:26;;;;;;;4.33;2.40;;;15.40;99.90;;;;;;6101381;23;20192;-90
2023/08/05 04:51:52;;;;;;;2.50;2.30;;;15.50;99.90;;;;;;6101064;23;20199;-90
2023/08/05 04:54:18;;;;;;;7.83;2.23;;;15.40;99.90;;;;;;6101038;23;20193;-90
2023/08/05 04:56:43;;;;;;;5.40;2.43;;;15.40;99.90;;;;;;6100562;23;20191;-91
2023/08/05 04:59:09;;;;;;;2.10;1.67;;;15.40;99.90;;;;;;6101583;23;20157;-90
2023/08/05 05:01:35;;;;;;;3.63;1.90;;;15.40;99.90;;;;;;6101757;23;20167;-90
2023/08/05 05:04:01;;;;;;;3.13;1.93;;;15.50;99.90;;;;;;6100731;23;20532;-90
2023/08/05 05:06:28;;;;;;;6.80;2.70;;;15.50;99.90;;;;;;6100625;23;20206;-91
2023/08/05 05:08:54;;;;;;;3.70;2.10;;;15.50;99.90;;;;;;6100457;23;20200;-90
2023/08/05 05:11:19;;;;;;;5.20;1.53;;;15.50;99.90;;;;;;6101258;23;20195;-91
2023/08/05 05:13:50;;;;;;;7.50;2.47;;;15.50;99.90;;;;;;6126303;23;20160;-90
2023/08/05 05:16:17;;;;;;;4.63;2.67;;;15.50;99.90;;;;;;6101777;23;20653;-90
2023/08/05 05:18:43;;;;;;;2.73;2.20;;;15.60;99.90;;;;;;6101137;23;20645;-91
2023/08/05 05:21:09;;;;;;;7.03;2.63;;;15.60;99.90;;;;;;6100938;23;20535;-91
2023/08/05 05:23:36;;;;;;;4.13;2.40;;;15.60;99.90;;;;;;6100138;23;20286;-91
2023/08/05 05:26:01;;;;;;;4.60;2.43;;;15.60;99.90;;;;;;6101199;23;20199;-90
2023/08/05 05:28:27;;;;;;;3.00;2.60;;;15.70;99.90;;;;;;6100444;23;20200;-90
2023/08/05 05:30:53;;;;;;;3.63;2.30;;;15.70;99.90;;;;;;6124481;23;20210;-91
2023/08/05 05:33:19;;;;;;;2.83;2.23;;;15.70;99.90;;;;;;6100654;23;20704;-90
2023/08/05 05:35:45;;;;;;;2.40;2.20;;;15.80;99.90;;;;;;6100462;23;20198;-90
2023/08/05 05:38:10;;;;;;;3.27;2.20;;;15.80;99.90;;;;;;6100882;23;20163;-91
2023/08/05 05:40:40;;;;;;;3.00;2.00;;;15.90;99.90;;;;;;6125688;23;20156;-91
2023/08/05 05:43:07;;;;;;;6.90;2.17;;;15.90;99.90;;;;;;6100877;23;20191;-91
2023/08/05 05:45:35;;;;;;;4.13;2.60;;;16.00;99.90;;;;;;6101422;23;20250;-91
2023/08/05 05:48:01;;;;;;;2.87;2.40;;;16.00;99.90;;;;;;6125688;23;20199;-90
2023/08/05 05:50:26;;;;;;;3.10;1.53;;;16.10;99.90;;;;;;6100974;23;20202;-91
2023/08/05 05:52:53;;;;;;;1.70;1.47;;;16.10;99.90;;;;;;6100691;23;20455;-91
2023/08/05 05:55:19;;;;;;;3.83;1.57;;;16.00;99.90;;;;;;6096019;23;20216;-90
2023/08/05 05:57:45;;;;;;;2.97;1.97;;;16.10;99.90;;;;;;6097330;23;20203;-90
2023/08/05 06:00:12;;;;;;;4.57;2.30;;;16.10;99.90;;;;;;6096824;23;20629;-91
2023/08/05 06:02:38;;;;;;;3.03;2.13;;;16.10;99.90;;;;;;6097714;23;20219;-90
2023/08/05 06:05:04;;;;;;;3.50;2.13;;;16.10;99.90;;;;;;6096976;23;20168;-89
2023/08/05 06:07:30;;;;;;;2.43;1.90;;;16.20;99.90;;;;;;6098689;23;20199;-89
2023/08/05 06:09:56;;;;;;;5.10;2.30;;;16.20;99.90;;;;;;6096878;23;20327;-91
2023/08/05 06:12:24;;;;;;;7.13;2.30;;;16.30;99.90;;;;;;6100464;23;20665;-91
2023/08/05 06:14:50;;;;;;;2.93;2.27;;;16.40;99.90;;;;;;6101620;23;20263;-90
2023/08/05 06:17:17;;;;;;;6.20;2.63;;;16.60;99.90;;;;;;6101218;23;20589;-89
2023/08/05 06:19:43;;;;;;;3.17;2.27;;;16.90;99.90;;;;;;6101530;23;20183;-88
2023/08/05 06:22:11;;;;;;;2.90;1.77;;;17.50;99.90;;;;;;6124285;23;20504;-89
2023/08/05 06:24:37;;;;;;;4.17;1.70;;;17.70;99.90;;;;;;6125746;23;20192;-91
2023/08/05 06:27:02;;;;;;;3.63;2.13;;;17.80;99.90;;;;;;6124538;23;20585;-89
2023/08/05 06:29:28;;;;;;;4.10;1.93;;;17.80;99.90;;;;;;6098072;23;20196;-88
2023/08/05 06:31:54;;;;;;;3.17;2.10;;;17.60;99.90;;;;;;6099803;23;20188;-88
2023/08/05 06:34:22;;;;;;;3.50;1.50;;;17.60;99.90;;;;;;6100022;23;20309;-89
2023/08/05 06:36:47;;;;;;;3.43;2.17;;;17.70;99.90;;;;;;6098701;23;20196;-91
2023/08/05 06:39:14;;;;;;;2.47;1.83;;;17.80;99.90;;;;;;6098364;23;20191;-86
2023/08/05 06:41:40;;;;;;;2.60;1.70;;;18.50;99.90;;;;;;6097747;23;20200;-88
2023/08/05 06:44:06;;;;;;;2.37;1.80;;;18.90;99.90;;;;;;6098236;23;20167;-85
2023/08/05 06:46:31;;;;;;;2.87;2.00;;;19.20;99.90;;;;;;6097311;23;20195;-86
2023/08/05 06:48:58;;;;;;;3.03;2.13;;;19.30;99.90;;;;;;6098503;23;20219;-89
2023/08/05 06:51:24;;;;;;;5.57;2.43;;;18.80;99.90;;;;;;6075304;23;20211;-88
2023/08/05 06:53:50;;;;;;;8.40;2.20;;;18.60;99.90;;;;;;6099403;23;20191;-91
2023/08/05 06:56:15;;;;;;;2.20;1.47;;;18.30;99.90;;;;;;6099436;23;20160;-88
2023/08/05 06:58:42;;;;;;;2.33;1.60;;;18.20;99.90;;;;;;6102665;23;20156;-86
2023/08/05 07:01:09;;;;;;;2.90;2.20;;;18.20;99.90;;;;;;6102443;23;20219;-89
2023/08/05 07:03:35;;;;;;;3.17;1.47;;;18.30;99.90;;;;;;6102584;23;20215;-87
2023/08/05 07:06:01;;;;;;;3.37;1.47;;;18.40;99.90;;;;;;6102775;23;20191;-86
2023/08/05 07:08:28;;;;;;;5.83;1.43;;;18.50;99.90;;;;;;6101385;23;20203;-87
2023/08/05 07:10:58;;;;;;;3.00;1.27;;;18.60;99.90;;;;;;6103071;23;20272;-87
2023/08/05 07:13:27;;;;;;;6.30;1.63;;;18.50;99.90;;;;;;6102627;23;20203;-87
2023/08/05 07:16:00;;;;;;;1.60;1.50;;;18.60;99.90;;;;;;6126783;23;20200;-87
2023/08/05 07:18:26;;;;;;;3.70;1.43;;;18.60;99.90;;;;;;6101879;23;20335;-87
2023/08/05 07:20:54;;;;;;;2.50;1.67;;;18.60;99.90;;;;;;6102484;23;20606;-87
2023/08/05 07:23:20;;;;;;;4.27;1.63;;;18.60;99.90;;;;;;6126433;23;20160;-86
2023/08/05 07:25:46;;;;;;;1.33;1.23;;;18.60;99.90;;;;;;6102442;23;20231;-88
2023/08/05 07:28:12;;;;;;;2.03;1.37;;;18.60;99.90;;;;;;6101728;23;20662;-87
2023/08/05 07:30:38;;;;;;;3.23;1.90;;;18.60;99.90;;;;;;6101249;23;20207;-88
2023/08/05 07:33:07;;;;;;;1.63;1.43;;;18.40;99.90;;;;;;6125780;23;20525;-88
2023/08/05 07:35:33;;;;;;;1.50;1.37;;;18.60;99.90;;;;;;6101453;23;20203;-89
2023/08/05 07:38:03;;;;;;;1.70;1.50;;;18.50;99.90;;;;;;6125351;23;20264;-87
2023/08/05 07:40:31;;;;;;;3.80;1.33;;;18.60;99.90;;;;;;6124724;23;20243;-87
2023/08/05 07:43:00;;;;;;;3.67;1.40;;;18.50;99.90;;;;;;6099221;23;20212;-88
2023/08/05 07:45:26;;;;;;;7.50;2.40;;;18.40;99.90;;;;;;6125587;23;20200;-88
2023/08/05 07:47:56;;;;;;;3.20;1.50;;;18.50;99.90;;;;;;6100323;23;20191;-88
2023/08/05 07:50:22;;;;;;;6.13;2.17;;;18.30;99.90;;;;;;6101455;23;20495;-87
2023/08/05 07:52:54;;;;;;;3.67;1.43;;;18.40;99.90;;;;;;6102643;23;20530;-88
2023/08/05 07:55:22;;;;;;;3.40;1.87;;;18.40;99.90;;;;;;6102133;23;20564;-87
2023/08/05 07:57:49;;;;;;;1.57;1.27;;;18.30;99.90;;;;;;6102132;23;20196;-88
2023/08/05 08:00:16;;;;;;;3.53;1.87;;;18.30;99.90;;;;;;6102132;23;20629;-87
2023/08/05 08:02:46;;;;;;;5.60;1.90;;;18.30;99.90;;;;;;6102168;23;20702;-87
2023/08/05 08:05:16;;;;;;;5.17;1.20;;;18.30;99.90;;;;;;6102960;23;20153;-88
2023/08/05 08:07:46;;;;;;;2.20;1.53;;;18.50;99.90;;;;;;6128426;23;20256;-88
2023/08/05 08:10:15;;;;;;;3.07;1.87;;;18.50;99.90;;;;;;6126238;23;20250;-88
2023/08/05 08:12:41;;;;;;;2.13;1.60;;;18.60;99.90;;;;;;6102760;23;20296;-87
2023/08/05 08:15:09;;;;;;;3.80;2.23;;;18.50;99.90;;;;;;6126127;23;20219;-87
2023/08/05 08:17:35;;;;;;;2.27;1.27;;;18.60;99.90;;;;;;6078510;23;20624;-88
2023/08/05 08:20:01;;;;;;;2.10;1.90;;;18.50;99.90;;;;;;6102388;23;20168;-88
2023/08/05 08:22:27;;;;;;;2.07;1.30;;;18.40;99.90;;;;;;6101840;23;20192;-87
2023/08/05 08:24:53;;;;;;;1.60;1.40;;;18.40;99.90;;;;;;6099530;23;20326;-88
2023/08/05 08:27:19;;;;;;;2.00;1.67;;;18.40;99.90;;;;;;6099340;23;20215;-91
2023/08/05 08:29:45;;;;;;;2.27;1.50;;;18.70;99.90;;;;;;6099424;23;20188;-87
2023/08/05 08:32:10;;;;;;;1.90;1.47;;;18.90;99.90;;;;;;6098998;23;20188;-89
2023/08/05 08:34:36;;;;;;;2.90;1.73;;;19.20;99.90;;;;;;6100536;23;20246;-87
2023/08/05 08:37:02;;;;;;;1.60;1.50;;;19.40;99.90;;;;;;6124410;23;20205;-87
2023/08/05 08:39:28;;;;;;;3.63;1.30;;;19.50;99.90;;;;;;6100106;23;20212;-88
2023/08/05 08:41:54;;;;;;;2.80;1.50;;;20.00;99.90;;;;;;6099468;23;20202;-89
2023/08/05 08:44:21;;;;;;;2.93;1.73;;;20.10;99.90;;;;;;6122219;23;20253;-90
2023/08/05 08:46:48;;;;;;;1.97;1.60;;;20.30;99.90;;;;;;6121218;23;20179;-88
2023/08/05 08:49:16;;;;;;;2.57;1.83;;;20.80;99.90;;;;;;6120468;23;20199;-88
2023/08/05 08:51:53;;;;;;;4.77;2.37;;;20.70;99.90;;;;;;6096448;23;20538;-89
2023/08/05 08:54:20;;;;;;;2.87;1.40;;;20.60;99.90;;;;;;6123170;23;20203;-89
2023/08/05 08:56:46;;;;;;;2.80;1.57;;;21.00;99.90;;;;;;6099047;23;20192;-89
2023/08/05 08:59:12;;;;;;;2.17;1.70;;;20.70;99.90;;;;;;6124861;23;20157;-88
2023/08/05 09:01:42;;;;;;;2.78;2.20;;;20.50;99.90;;;;;;6100757;23;20164;-88
2023/08/05 09:04:11;;;;;;;3.47;1.80;;;20.60;99.90;;;;;;6101041;23;20195;-89
2023/08/05 09:06:42;;;;;;;2.20;1.47;;;20.50;99.90;;;;;;6124303;23;20211;-88
2023/08/05 09:09:08;;;;;;;1.70;1.60;;;20.10;99.90;;;;;;6124396;23;20251;-88
2023/08/05 09:11:33;;;;;;;2.40;1.67;;;19.90;99.90;;;;;;6099721;23;20207;-88
2023/08/05 09:13:59;;;;;;;2.00;1.63;;;19.70;99.90;;;;;;6100823;23;20164;-88
2023/08/05 09:16:26;;;;;;;1.67;1.50;;;19.50;99.90;;;;;;6099170;23;20199;-87
2023/08/05 09:18:55;;;;;;;2.17;1.83;;;19.70;99.90;;;;;;6099534;23;20637;-89
2023/08/05 09:21:22;;;;;;;2.83;1.40;;;19.80;99.90;;;;;;6100517;23;20196;-88
2023/08/05 09:23:48;;;;;;;2.23;1.63;;;19.70;99.90;;;;;;6099707;23;20395;-88
2023/08/05 09:26:14;;;;;;;2.17;1.83;;;19.80;99.90;;;;;;6100475;23;20243;-88
2023/08/05 09:28:39;;;;;;;2.47;2.23;;;19.50;99.90;;;;;;6100853;23;20163;-87
2023/08/05 09:31:14;;;;;;;2.67;2.03;;;19.60;99.90;;;;;;6126437;23;20199;-87
2023/08/05 09:33:42;;;;;;;1.73;1.50;;;19.70;99.90;;;;;;6122206;23;20287;-87
2023/08/05 09:36:10;;;;;;;2.23;1.23;;;19.50;99.90;;;;;;6097858;23;20228;-87
2023/08/05 09:38:38;;;;;;;5.60;1.80;;;19.30;99.90;;;;;;6097742;23;20270;-89
2023/08/05 09:41:04;;;;;;;1.83;1.30;;;19.20;99.90;;;;;;6098416;23;20215;-87
2023/08/05 09:43:35;;;;;;;6.47;1.47;;;20.10;99.90;;;;;;6096092;23;20196;-88
2023/08/05 09:46:06;;;;;;;2.77;1.47;;;20.10;99.90;;;;;;6121430;23;20211;-87
2023/08/05 09:48:43;;;;;;;1.90;1.67;;;20.10;99.90;;;;;;6120217;23;20290;-90
2023/08/05 09:51:19;;;;;;;1.97;1.60;;;19.80;99.90;;;;;;6121539;23;20237;-89
2023/08/05 09:53:52;;;;;;;5.63;1.70;;;19.70;99.90;;;;;;6098976;23;20254;-87
2023/08/05 09:56:20;;;;;;;1.80;1.20;;;20.10;99.90;;;;;;6121915;23;20148;-89
2023/08/05 09:58:48;;;;;;;2.90;1.90;;;20.60;99.90;;;;;;6097950;23;20160;-88
2023/08/05 10:01:14;;;;;;;3.83;1.30;;;20.30;99.90;;;;;;6121994;23;20211;-89
2023/08/05 10:03:40;;;;;;;3.00;1.67;;;19.50;99.90;;;;;;6121275;23;20199;-87
2023/08/05 10:06:11;;;;;;;1.73;1.60;;;19.30;99.90;;;;;;6098370;23;20218;-87
2023/08/05 10:08:40;;;;;;;2.33;1.50;;;19.60;99.90;;;;;;6121411;23;20199;-88
2023/08/05 10:11:07;;;;;;;2.20;1.63;;;19.40;99.90;;;;;;6097918;23;20188;-88
2023/08/05 10:13:43;;;;;;;3.03;1.77;;;19.20;99.90;;;;;;6097725;23;20318;-88
2023/08/05 10:16:11;;;;;;;4.37;1.93;;;19.00;99.90;;;;;;6121236;23;20199;-95
2023/08/05 10:18:38;;;;;;;3.03;1.73;;;19.00;99.90;;;;;;6096503;23;20200;-93
2023/08/05 10:21:05;;;;;;;1.73;1.40;;;19.40;99.90;;;;;;6120093;23;20230;-91
2023/08/05 10:23:36;;;;;;;2.00;1.90;;;20.30;99.90;;;;;;6120077;23;20245;-89
2023/08/05 10:26:05;;;;;;;1.93;1.77;;;20.50;99.90;;;;;;6096664;23;20195;-90
2023/08/05 10:28:34;;;;;;;4.07;1.90;;;20.30;99.90;;;;;;6096034;23;20204;-91
2023/08/05 10:31:04;;;;;;;2.43;2.03;;;20.20;99.90;;;;;;6119964;23;20262;-91
2023/08/05 10:33:30;;;;;;;1.80;1.63;;;20.10;99.90;;;;;;6120409;23;20233;-89
2023/08/05 10:36:05;;;;;;;1.70;1.37;;;20.00;99.90;;;;;;6120439;23;20196;-92
2023/08/05 10:38:41;;;;;;;2.43;1.53;;;19.80;99.90;;;;;;6096859;23;20700;-91
2023/08/05 10:41:07;;;;;;;2.57;1.43;;;19.40;99.90;;;;;;6120408;23;20148;-89
2023/08/05 10:43:34;;;;;;;2.00;1.63;;;19.50;99.90;;;;;;6121027;23;20162;-92
2023/08/05 10:46:06;;;;;;;3.03;2.33;;;19.80;99.90;;;;;;6095773;23;20204;-92
2023/08/05 10:48:45;;;;;;;2.60;1.90;;;20.10;99.90;;;;;;6120256;23;20223;-94
2023/08/05 10:51:19;;;;;;;5.10;1.90;;;20.20;99.90;;;;;;6120779;23;20208;-93
2023/08/05 10:53:51;;;;;;;2.00;1.53;;;20.20;99.90;;;;;;6105089;23;20530;-94
2023/08/05 10:56:18;;;;;;;3.87;2.03;;;20.10;99.90;;;;;;6121874;23;20160;-94
2023/08/05 10:58:50;;;;;;;4.17;1.80;;;20.10;99.90;;;;;;6121914;23;20160;-94
2023/08/05 11:01:17;;;;;;;3.23;1.60;;;20.00;99.90;;;;;;6121553;23;20527;-95
2023/08/05 11:03:52;;;;;;;3.70;2.10;;;20.10;99.90;;;;;;6076150;23;20196;-94
2023/08/05 11:06:25;;;;;;;2.00;1.80;;;20.30;99.90;;;;;;6131423;23;20271;-93
2023/08/05 11:08:51;;;;;;;1.60;1.40;;;20.10;99.90;;;;;;6126484;23;20196;-95
2023/08/05 11:11:21;;;;;;;2.97;1.87;;;20.10;99.90;;;;;;6124505;23;20211;-95
2023/08/05 11:13:48;;;;;;;3.03;2.00;;;19.90;99.90;;;;;;6121027;23;20172;-91
2023/08/05 11:16:16;;;;;;;2.03;1.60;;;20.10;99.90;;;;;;6120810;23;20561;-94
2023/08/05 11:18:54;;;;;;;2.30;1.60;;;19.90;99.90;;;;;;6121171;23;20653;-93
2023/08/05 11:21:20;;;;;;;2.20;1.77;;;20.10;99.90;;;;;;6120199;23;20196;-93
2023/08/05 11:23:46;;;;;;;1.97;1.83;;;20.20;99.90;;;;;;6094605;23;20271;-93
2023/08/05 11:26:13;;;;;;;2.30;1.87;;;20.00;99.90;;;;;;6095828;23;20211;-92
2023/08/05 11:28:47;;;;;;;2.20;1.33;;;19.90;99.90;;;;;;6097177;23;20187;-91
2023/08/05 11:31:22;;;;;;;3.73;2.03;;;19.90;99.90;;;;;;6096442;23;20980;-92
2023/08/05 11:33:50;;;;;;;2.33;2.10;;;19.80;99.90;;;;;;6094803;23;20777;-89
2023/08/05 11:36:16;;;;;;;2.63;2.10;;;19.90;99.90;;;;;;6095963;23;20202;-92
2023/08/05 11:38:42;;;;;;;2.03;1.80;;;19.90;99.90;;;;;;6095674;23;20188;-92
2023/08/05 11:41:09;;;;;;;1.67;1.57;;;20.00;99.90;;;;;;6096429;23;20210;-91
2023/08/05 11:43:35;;;;;;;3.60;2.30;;;19.90;99.90;;;;;;6096563;23;20164;-95
2023/08/05 11:46:01;;;;;;;3.10;2.00;;;19.90;99.90;;;;;;6120048;23;20210;-92
2023/08/05 11:48:28;;;;;;;4.00;1.77;;;19.80;99.90;;;;;;6095882;23;20575;-92
2023/08/05 11:51:02;;;;;;;1.97;1.60;;;19.90;99.90;;;;;;6095826;23;20707;-92
2023/08/05 11:53:31;;;;;;;2.30;1.57;;;19.70;99.90;;;;;;6121615;23;20199;-96
2023/08/05 11:55:57;;;;;;;2.20;2.00;;;19.60;99.90;;;;;;6099437;23;20586;-94
2023/08/05 11:58:23;;;;;;;1.77;1.47;;;19.60;99.90;;;;;;6099789;23;20200;-95
2023/08/05 12:00:52;;;;;;;2.33;1.67;;;19.50;99.90;;;;;;6100275;23;20660;-94
2023/08/05 12:03:19;;;;;;;2.27;1.80;;;19.80;99.90;;;;;;6124483;23;20192;-94
2023/08/05 12:05:46;;;;;;;1.67;1.40;;;19.70;99.90;;;;;;6100065;23;20279;-94
2023/08/05 12:08:33;;;;;;;2.00;1.80;;;19.60;99.90;;;;;;6126154;23;20153;-96
2023/08/05 12:10:58;;;;;;;3.47;1.77;;;19.70;99.90;;;;;;6106037;23;20702;-95
2023/08/05 12:13:24;;;;;;;7.30;2.60;;;19.50;99.90;;;;;;6102074;23;20230;-96
2023/08/05 12:15:50;;;;;;;4.07;2.33;;;19.60;99.90;;;;;;6102448;23;20215;-94
2023/08/05 12:18:17;;;;;;;3.90;2.03;;;19.60;99.90;;;;;;6101278;23;20303;-95
2023/08/05 12:20:47;;;;;;;2.50;2.20;;;19.60;99.90;;;;;;6125048;23;20191;-94
2023/08/05 12:23:12;;;;;;;2.80;2.27;;;19.60;99.90;;;;;;6123703;23;20574;-94
2023/08/05 12:25:38;;;;;;;3.93;2.23;;;19.60;99.90;;;;;;6101107;23;20195;-95
2023/08/05 12:28:04;;;;;;;2.67;1.93;;;19.70;99.90;;;;;;6091061;23;20623;-94
2023/08/05 12:30:30;;;;;;;6.37;2.83;;;19.60;99.90;;;;;;6124465;23;20219;-94
2023/08/05 12:32:58;;;;;;;2.60;2.03;;;19.70;99.90;;;;;;6100114;23;20204;-94
2023/08/05 12:35:27;;;;;;;3.57;2.43;;;19.60;99.90;;;;;;6100498;23;20203;-95
2023/08/05 12:37:53;;;;;;;2.77;2.37;;;19.60;99.90;;;;;;6126465;23;20160;-94
2023/08/05 12:40:19;;;;;;;2.50;2.07;;;19.60;99.90;;;;;;6100450;23;20210;-95
2023/08/05 12:42:45;;;;;;;3.63;2.43;;;19.50;99.90;;;;;;6101026;23;20641;-94
2023/08/05 12:45:10;;;;;;;4.93;2.33;;;19.40;99.90;;;;;;6100142;23;20220;-96